createdAt,value
2023-07-15T00:01:36.354Z,2.97
2023-07-15T00:08:16.092Z,2.38
2023-07-15T00:10:44.994Z,4.30
2023-07-15T00:13:17.023Z,2.30
2023-07-15T00:15:48.279Z,2.50
2023-07-15T00:18:15.621Z,3.10
2023-07-15T00:23:18.936Z,2.67
2023-07-15T00:25:46.279Z,2.97
2023-07-15T00:28:13.071Z,3.00
2023-07-15T00:30:40.032Z,3.80
2023-07-15T00:33:13.226Z,3.80
2023-07-15T00:35:40.049Z,2.47
2023-07-15T00:38:06.830Z,2.70
2023-07-15T00:40:39.550Z,3.80
2023-07-15T00:43:44.646Z,2.90
2023-07-15T00:46:20.405Z,2.88
2023-07-15T00:48:53.319Z,2.80
2023-07-15T00:51:21.651Z,2.75
2023-07-15T00:53:49.702Z,3.15
2023-07-15T00:56:17.259Z,3.25
2023-07-15T00:58:44.149Z,3.05
2023-07-15T01:01:14.728Z,3.30
2023-07-15T01:03:41.811Z,5.13
2023-07-15T01:06:08.824Z,2.92
2023-07-15T01:08:36.673Z,4.13
2023-07-15T01:11:03.489Z,2.83
2023-07-15T01:13:30.350Z,3.83
2023-07-15T01:15:57.148Z,5.25
2023-07-15T01:18:24.017Z,3.55
2023-07-15T01:20:51.940Z,4.57
2023-07-15T01:23:18.857Z,2.72
2023-07-15T01:25:45.821Z,2.45
2023-07-15T01:28:12.597Z,4.20
2023-07-15T01:30:39.393Z,2.63
2023-07-15T01:33:06.268Z,2.80
2023-07-15T01:35:33.299Z,3.22
2023-07-15T01:38:00.072Z,2.92
2023-07-15T01:40:26.852Z,3.67
2023-07-15T01:42:53.686Z,2.60
2023-07-15T01:45:21.289Z,2.55
2023-07-15T01:47:48.072Z,2.67
2023-07-15T01:50:14.897Z,3.95
2023-07-15T01:52:41.779Z,2.90
2023-07-15T01:55:08.978Z,3.17
2023-07-15T01:57:35.876Z,6.03
2023-07-15T02:00:02.683Z,3.17
2023-07-15T02:02:40.174Z,3.17
2023-07-15T02:05:07.471Z,2.95
2023-07-15T02:07:34.323Z,4.50
2023-07-15T02:10:01.100Z,3.85
2023-07-15T02:12:29.144Z,3.70
2023-07-15T02:14:56.869Z,3.47
2023-07-15T02:17:24.268Z,3.45
2023-07-15T02:19:51.241Z,2.38
2023-07-15T02:22:18.269Z,2.78
2023-07-15T02:24:45.145Z,1.70
2023-07-15T02:27:12.293Z,2.40
2023-07-15T04:59:06.640Z,4.07
2023-07-15T05:01:33.401Z,3.15
2023-07-15T05:04:01.101Z,3.35
2023-07-15T05:06:28.761Z,2.90
2023-07-15T05:08:55.869Z,3.33
2023-07-15T05:11:23.021Z,3.08
2023-07-15T05:13:49.744Z,3.25
2023-07-15T05:16:16.636Z,4.35
2023-07-15T05:18:43.526Z,3.92
2023-07-15T05:21:10.498Z,3.08
2023-07-15T05:23:37.222Z,2.72
2023-07-15T05:26:03.945Z,4.05
2023-07-15T05:28:33.879Z,3.28
2023-07-15T05:31:01.692Z,3.20
2023-07-15T05:33:29.672Z,2.70
2023-07-15T05:35:57.155Z,2.60
2023-07-15T05:38:25.221Z,3.10
2023-07-15T05:40:52.840Z,2.88
2023-07-15T05:43:20.652Z,2.40
2023-07-15T05:45:48.202Z,3.15
2023-07-15T05:48:15.073Z,2.97
2023-07-15T05:50:41.932Z,3.83
2023-07-15T05:53:09.186Z,2.90
2023-07-15T05:55:36.427Z,2.60
2023-07-15T05:58:10.434Z,3.65
2023-07-15T06:00:41.329Z,2.28
2023-07-15T06:03:09.544Z,3.10
2023-07-15T06:05:36.472Z,3.08
2023-07-15T06:08:03.462Z,2.75
2023-07-15T06:10:30.324Z,2.95
2023-07-15T06:12:57.040Z,2.80
2023-07-15T06:15:23.816Z,2.97
2023-07-15T06:17:50.590Z,2.72
2023-07-15T06:20:19.327Z,3.67
2023-07-15T06:22:46.296Z,2.70
2023-07-15T06:25:13.922Z,2.83
2023-07-15T06:27:40.838Z,2.90
2023-07-15T06:30:08.202Z,3.38
2023-07-15T06:32:35.386Z,3.30
2023-07-15T06:35:02.311Z,3.08
2023-07-15T06:37:29.028Z,4.10
2023-07-15T06:39:58.878Z,2.83
2023-07-15T06:42:28.638Z,2.65
2023-07-15T06:44:55.383Z,5.20
2023-07-15T06:47:22.263Z,4.15
2023-07-15T06:49:49.014Z,2.55
2023-07-15T06:52:15.752Z,2.60
2023-07-15T06:54:42.495Z,2.38
2023-07-15T06:57:09.368Z,3.17
2023-07-15T06:59:36.555Z,5.13
2023-07-15T07:02:03.506Z,3.25
2023-07-15T07:04:30.215Z,2.40
2023-07-15T07:06:56.948Z,2.45
2023-07-15T07:09:23.663Z,2.13
2023-07-15T07:11:50.416Z,2.00
2023-07-15T07:14:17.364Z,1.70
2023-07-15T07:16:45.171Z,2.20
2023-07-15T07:19:11.917Z,2.00
2023-07-15T07:21:39.708Z,2.10
2023-07-15T07:24:06.715Z,1.65
2023-07-15T07:26:33.435Z,3.85
2023-07-15T07:29:00.458Z,2.35
2023-07-15T07:31:27.220Z,3.42
2023-07-15T07:33:54.094Z,1.65
2023-07-15T07:36:22.302Z,1.70
2023-07-15T07:38:49.054Z,1.90
2023-07-15T07:41:17.710Z,2.15
2023-07-15T07:43:44.694Z,2.67
2023-07-15T07:46:12.277Z,1.80
2023-07-15T07:48:39.283Z,1.88
2023-07-15T07:51:06.057Z,3.08
2023-07-15T07:53:32.800Z,2.03
2023-07-15T07:55:59.978Z,2.38
2023-07-15T07:58:26.780Z,1.83
2023-07-15T08:00:53.583Z,2.38
2023-07-15T08:03:20.497Z,2.05
2023-07-15T08:05:48.961Z,1.80
2023-07-15T08:08:16.438Z,1.85
2023-07-15T08:10:43.222Z,2.95
2023-07-15T08:13:10.087Z,2.17
2023-07-15T08:15:37.782Z,1.95
2023-07-15T08:18:05.999Z,1.80
2023-07-15T08:20:33.174Z,3.17
2023-07-15T08:23:01.057Z,1.80
2023-07-15T08:25:28.663Z,1.92
2023-07-15T08:27:55.632Z,2.20
2023-07-15T08:30:22.927Z,2.05
2023-07-15T08:32:49.818Z,3.47
2023-07-15T08:35:16.610Z,1.90
2023-07-15T08:37:43.527Z,1.80
2023-07-15T08:40:14.519Z,1.80
2023-07-15T08:42:41.692Z,1.70
2023-07-15T08:45:09.245Z,2.20
2023-07-15T08:47:38.593Z,1.80
2023-07-15T08:50:11.434Z,2.97
2023-07-15T08:52:39.585Z,2.13
2023-07-15T08:55:07.861Z,1.95
2023-07-15T08:57:36.339Z,2.85
2023-07-15T09:00:11.451Z,1.98
2023-07-15T09:02:39.692Z,2.05
2023-07-15T09:05:08.946Z,1.70
2023-07-15T09:07:45.176Z,1.98
2023-07-15T09:10:15.464Z,1.70
2023-07-15T09:12:54.300Z,1.60
2023-07-15T09:15:21.520Z,2.38
2023-07-15T09:17:59.094Z,1.40
2023-07-15T09:20:27.179Z,1.58
2023-07-15T09:22:59.112Z,2.53
2023-07-15T09:25:26.734Z,1.70
2023-07-15T09:27:54.492Z,1.70
2023-07-15T09:30:21.649Z,1.42
2023-07-15T09:32:48.875Z,2.35
2023-07-15T09:35:15.982Z,1.95
2023-07-15T09:37:42.931Z,1.58
2023-07-15T09:40:10.333Z,2.13
2023-07-15T09:42:57.170Z,1.60
2023-07-15T09:45:34.449Z,1.65
2023-07-15T09:48:07.054Z,1.42
2023-07-15T09:50:35.827Z,1.98
2023-07-15T09:53:03.735Z,1.65
2023-07-15T09:55:32.220Z,3.78
2023-07-15T09:58:16.839Z,1.60
2023-07-15T10:00:48.319Z,2.15
2023-07-15T10:03:23.981Z,1.77
2023-07-15T10:05:51.660Z,4.82
2023-07-15T10:08:18.879Z,1.60
2023-07-15T10:10:46.211Z,1.50
2023-07-15T10:13:14.063Z,1.60
2023-07-15T10:15:41.841Z,1.83
2023-07-15T10:18:19.219Z,1.40
2023-07-15T10:20:56.988Z,2.47
2023-07-15T10:23:28.777Z,1.60
2023-07-15T10:26:04.626Z,1.77
2023-07-15T10:28:41.012Z,1.50
2023-07-15T10:31:17.940Z,3.17
2023-07-15T10:33:55.653Z,1.30
2023-07-15T10:37:06.471Z,2.17
2023-07-15T10:39:33.984Z,1.50
2023-07-15T10:42:09.381Z,1.38
2023-07-15T10:44:41.727Z,1.48
2023-07-15T10:47:09.730Z,1.38
2023-07-15T10:49:36.986Z,2.63
2023-07-15T10:52:05.553Z,1.70
2023-07-15T10:54:36.271Z,1.77
2023-07-15T10:57:11.511Z,1.65
2023-07-15T10:59:43.056Z,1.33
2023-07-15T11:02:10.106Z,1.40
2023-07-15T11:04:39.423Z,1.60
2023-07-15T11:07:10.258Z,1.50
2023-07-15T11:09:41.583Z,1.73
2023-07-15T11:12:10.110Z,2.42
2023-07-15T11:14:41.835Z,1.55
2023-07-15T11:17:09.080Z,1.58
2023-07-15T11:19:35.949Z,1.45
2023-07-15T11:22:10.563Z,1.70
2023-07-15T11:24:37.310Z,1.52
2023-07-15T11:27:04.399Z,1.58
2023-07-15T11:34:27.291Z,1.50
2023-07-15T11:36:55.651Z,2.00
2023-07-15T11:39:22.799Z,6.97
2023-07-15T11:41:52.762Z,2.17
2023-07-15T11:44:24.069Z,1.17
2023-07-15T11:46:51.142Z,1.40
2023-07-15T11:49:22.148Z,2.03
2023-07-15T11:51:49.462Z,1.30
2023-07-15T11:54:17.883Z,1.80
2023-07-15T11:56:46.437Z,1.55
2023-07-15T11:59:33.586Z,1.60
2023-07-15T12:02:04.524Z,1.77
2023-07-15T12:04:32.414Z,1.55
2023-07-15T12:07:05.280Z,2.13
2023-07-15T12:09:32.819Z,2.47
2023-07-15T12:11:59.831Z,1.60
2023-07-15T12:14:27.204Z,1.70
2023-07-15T12:16:56.825Z,1.65
2023-07-15T12:19:25.563Z,1.70
2023-07-15T12:21:53.300Z,1.55
2023-07-15T12:24:20.060Z,1.85
2023-07-15T12:26:46.816Z,1.75
2023-07-15T12:29:13.565Z,1.58
2023-07-15T12:31:40.278Z,1.80
2023-07-15T12:34:07.032Z,1.70
2023-07-15T12:36:33.858Z,1.70
2023-07-15T12:39:00.589Z,1.88
2023-07-15T12:41:27.359Z,1.70
2023-07-15T12:43:54.098Z,1.85
2023-07-15T12:46:20.912Z,1.55
2023-07-15T12:48:50.103Z,2.00
2023-07-15T12:51:17.018Z,1.92
2023-07-15T12:53:43.785Z,2.17
2023-07-15T12:56:14.829Z,2.42
2023-07-15T12:58:42.010Z,1.80
2023-07-15T13:01:08.747Z,1.48
2023-07-15T13:03:35.564Z,1.63
2023-07-15T13:06:02.721Z,2.65
2023-07-15T13:08:29.485Z,2.03
2023-07-15T13:10:56.417Z,1.92
2023-07-15T13:13:23.345Z,1.80
2023-07-15T13:15:50.920Z,2.00
2023-07-15T13:18:17.722Z,1.90
2023-07-15T13:20:44.458Z,3.25
2023-07-15T13:23:11.407Z,1.80
2023-07-15T13:25:38.275Z,2.95
2023-07-15T13:28:05.849Z,3.70
2023-07-15T13:30:32.757Z,2.13
2023-07-15T13:32:59.717Z,2.47
2023-07-15T13:35:26.715Z,2.17
2023-07-15T13:37:53.461Z,1.60
2023-07-15T13:40:21.105Z,1.80
2023-07-15T13:42:50.676Z,1.70
2023-07-15T13:45:17.912Z,1.92
2023-07-15T13:47:44.987Z,1.75
2023-07-15T13:50:12.823Z,1.83
2023-07-15T13:52:39.662Z,2.10
2023-07-15T13:55:06.790Z,2.53
2023-07-15T13:57:33.570Z,4.55
2023-07-15T14:00:00.290Z,1.80
2023-07-15T14:02:27.042Z,1.70
2023-07-15T14:04:53.791Z,1.90
2023-07-15T14:07:20.494Z,5.38
2023-07-15T14:12:13.974Z,1.70
2023-07-15T14:14:40.704Z,1.85
2023-07-15T14:17:09.028Z,3.92
2023-07-15T14:19:35.848Z,1.95
2023-07-15T14:22:15.470Z,2.28
2023-07-15T14:27:11.814Z,1.92
2023-07-15T14:29:41.628Z,1.83
2023-07-15T14:32:08.612Z,1.98
2023-07-15T14:34:35.334Z,1.75
2023-07-15T14:37:02.069Z,2.30
2023-07-15T14:39:28.825Z,2.30
2023-07-15T14:41:55.537Z,1.77
2023-07-15T14:44:22.250Z,1.90
2023-07-15T14:46:48.977Z,1.92
2023-07-15T14:49:16.016Z,2.00
2023-07-15T14:51:42.809Z,2.22
2023-07-15T14:54:09.541Z,3.05
2023-07-15T14:56:36.328Z,2.55
2023-07-15T14:59:03.129Z,2.78
2023-07-15T15:01:31.200Z,2.35
2023-07-15T15:03:58.409Z,1.92
2023-07-15T15:06:25.526Z,3.15
2023-07-15T15:08:52.302Z,1.45
2023-07-15T15:11:19.131Z,2.03
2023-07-15T15:13:50.298Z,1.90
2023-07-15T15:16:17.132Z,1.77
2023-07-15T15:18:47.110Z,1.90
2023-07-15T15:21:15.471Z,1.90
2023-07-15T15:23:42.946Z,2.22
2023-07-15T15:26:10.068Z,3.05
2023-07-15T15:28:41.857Z,1.95
2023-07-15T15:31:08.787Z,2.13
2023-07-15T15:58:05.238Z,6.95
2023-07-15T16:00:31.976Z,4.53
2023-07-15T16:02:58.816Z,4.60
2023-07-15T16:05:25.676Z,2.40
2023-07-15T16:07:52.435Z,1.73
2023-07-15T16:15:12.532Z,1.80
2023-07-15T16:17:39.310Z,1.92
2023-07-15T16:20:07.965Z,3.17
2023-07-15T16:22:35.216Z,2.70
2023-07-15T16:25:02.477Z,2.65
2023-07-15T16:27:29.225Z,2.72
2023-07-15T16:29:55.961Z,2.25
2023-07-15T16:32:22.963Z,3.53
2023-07-15T16:34:49.820Z,2.35
2023-07-15T16:37:16.518Z,3.65
2023-07-15T16:39:43.300Z,2.55
2023-07-15T16:42:10.062Z,4.53
2023-07-15T16:44:36.815Z,3.42
2023-07-15T16:47:03.821Z,7.65
2023-07-15T16:49:30.543Z,2.70
2023-07-15T16:51:57.286Z,8.52
2023-07-15T16:54:24.026Z,2.78
2023-07-15T16:56:50.756Z,3.25
2023-07-15T16:59:17.510Z,3.00
2023-07-15T17:01:44.291Z,2.60
2023-07-15T17:04:11.184Z,2.53
2023-07-15T17:06:38.016Z,2.40
2023-07-15T17:09:04.744Z,2.28
2023-07-15T17:55:37.604Z,2.53
2023-07-15T17:58:04.409Z,3.05
2023-07-15T18:00:31.236Z,1.85
2023-07-15T18:02:58.208Z,2.53
2023-07-15T18:05:27.971Z,2.30
2023-07-15T18:07:55.048Z,2.00
2023-07-15T18:10:22.055Z,2.22
2023-07-15T18:12:48.774Z,2.60
2023-07-15T18:15:15.871Z,2.10
2023-07-15T18:17:43.604Z,3.42
2023-07-15T18:20:10.587Z,2.30
2023-07-15T18:22:40.352Z,2.50
2023-07-15T18:25:07.686Z,2.30
2023-07-15T18:32:28.007Z,3.65
2023-07-15T18:34:58.540Z,2.67
2023-07-15T18:44:46.670Z,3.67
2023-07-15T18:49:42.143Z,5.80
2023-07-15T18:52:12.381Z,2.80
2023-07-15T19:02:16.276Z,3.80
2023-07-15T19:04:43.082Z,3.35
2023-07-15T19:07:09.926Z,2.83
2023-07-15T19:09:36.642Z,5.03
2023-07-15T19:12:03.506Z,3.28
2023-07-15T19:14:30.212Z,3.33
2023-07-15T19:16:56.971Z,4.10
2023-07-15T19:19:23.888Z,2.97
2023-07-15T19:21:50.635Z,4.95
2023-07-15T19:24:17.429Z,5.30
2023-07-15T19:26:44.346Z,3.38
2023-07-15T19:29:11.106Z,3.20
2023-07-15T19:31:37.864Z,3.17
2023-07-15T19:34:04.629Z,4.00
2023-07-15T19:36:31.416Z,3.65
2023-07-15T19:38:58.147Z,3.63
2023-07-15T19:41:24.919Z,4.05
2023-07-15T19:43:51.629Z,3.92
2023-07-15T19:46:18.776Z,3.17
2023-07-15T19:48:46.472Z,2.80
2023-07-15T19:51:13.607Z,4.50
2023-07-15T19:53:40.391Z,3.80
2023-07-15T19:56:07.176Z,3.30
2023-07-15T19:58:34.058Z,5.55
2023-07-15T20:01:01.020Z,3.50
2023-07-15T20:03:27.976Z,3.20
2023-07-15T20:05:54.931Z,5.15
2023-07-15T20:08:23.236Z,3.60
2023-07-15T20:10:50.127Z,2.80
2023-07-15T20:13:18.073Z,5.50
2023-07-15T20:15:45.204Z,3.15
2023-07-15T20:18:12.009Z,3.30
2023-07-15T20:20:38.827Z,4.75
2023-07-15T20:23:05.655Z,4.03
2023-07-15T20:25:32.396Z,6.05
2023-07-15T20:27:59.113Z,5.63
2023-07-15T20:30:25.929Z,4.28
2023-07-15T20:32:52.739Z,3.72
2023-07-15T20:35:19.733Z,4.72
2023-07-15T20:37:46.460Z,4.82
2023-07-15T20:40:13.425Z,3.85
2023-07-15T20:42:40.251Z,3.83
2023-07-15T20:45:07.614Z,4.07
2023-07-15T20:47:42.018Z,4.20
2023-07-15T20:50:08.829Z,5.25
2023-07-15T20:52:35.576Z,5.20
2023-07-15T20:55:02.381Z,4.95
2023-07-15T20:57:29.080Z,8.15
2023-07-15T20:59:55.806Z,4.05
2023-07-15T21:02:23.835Z,4.40
2023-07-15T21:04:52.471Z,6.05
2023-07-15T21:07:19.188Z,7.10
2023-07-15T21:09:46.946Z,8.23
2023-07-15T21:12:13.648Z,9.57
2023-07-15T21:14:40.376Z,7.20
2023-07-15T21:17:08.194Z,5.15
2023-07-15T21:19:35.599Z,4.28
2023-07-15T21:22:03.962Z,4.30
2023-07-15T21:24:30.750Z,5.70
2023-07-15T21:26:58.521Z,4.25
2023-07-15T21:29:25.446Z,4.30
2023-07-15T21:31:52.220Z,5.53
2023-07-15T21:34:19.328Z,5.45
2023-07-15T21:36:46.057Z,5.50
2023-07-15T21:39:12.860Z,4.25
2023-07-15T21:41:40.520Z,6.32
2023-07-15T21:44:07.285Z,4.10
2023-07-15T21:46:37.274Z,4.72
2023-07-15T21:49:04.410Z,4.82
2023-07-15T21:51:31.201Z,4.45
2023-07-15T21:53:57.927Z,3.83
2023-07-15T21:56:24.892Z,4.70
2023-07-15T21:58:51.695Z,4.85
2023-07-15T22:01:18.510Z,4.80
2023-07-15T22:03:45.312Z,3.67
2023-07-15T22:06:12.195Z,3.85
2023-07-15T22:08:39.131Z,5.80
2023-07-15T22:11:05.869Z,5.13
2023-07-15T22:13:32.620Z,3.60
2023-07-15T22:15:59.398Z,3.53
2023-07-15T22:18:39.826Z,5.40
2023-07-15T22:21:08.655Z,4.10
2023-07-15T22:23:35.494Z,5.07
2023-07-15T22:26:02.260Z,7.40
2023-07-15T22:28:29.011Z,6.43
2023-07-15T22:30:55.760Z,4.30
2023-07-15T22:33:22.568Z,5.82
2023-07-15T22:35:49.375Z,5.03
2023-07-15T22:38:16.153Z,6.38
2023-07-15T22:40:42.915Z,4.57
2023-07-15T22:43:09.680Z,4.93
2023-07-15T22:45:48.209Z,6.15
2023-07-15T22:50:45.854Z,6.65
2023-07-15T22:53:12.694Z,9.15
2023-07-15T22:55:39.403Z,7.78
2023-07-15T22:58:06.193Z,7.03
2023-07-15T23:00:32.972Z,6.88
2023-07-15T23:03:01.237Z,6.80
2023-07-15T23:05:28.201Z,5.25
2023-07-15T23:07:54.902Z,6.97
2023-07-15T23:10:21.626Z,5.30
2023-07-15T23:12:48.380Z,6.30
2023-07-15T23:15:15.172Z,6.53
2023-07-15T23:17:41.974Z,7.57
2023-07-15T23:20:08.899Z,7.45
2023-07-15T23:22:35.860Z,4.50
2023-07-15T23:25:06.592Z,5.45
2023-07-15T23:27:33.606Z,5.20
2023-07-15T23:30:00.328Z,5.63
2023-07-15T23:32:28.808Z,5.55
2023-07-15T23:34:59.264Z,4.85
2023-07-15T23:37:26.926Z,4.55
2023-07-15T23:39:55.825Z,5.47
2023-07-15T23:42:25.879Z,12.10
2023-07-15T23:44:53.012Z,4.93
2023-07-15T23:47:20.383Z,9.35
2023-07-15T23:49:50.242Z,6.90
2023-07-15T23:52:17.503Z,5.50
2023-07-15T23:54:44.268Z,8.02
2023-07-15T23:57:11.031Z,7.68
2023-07-15T23:59:37.867Z,12.43
